createdAt,value
2022-09-28T00:01:36.359Z,8.81
2022-09-28T00:04:07.220Z,8.62
2022-09-28T00:06:37.096Z,8.72
2022-09-28T00:09:07.331Z,8.69
2022-09-28T00:11:37.693Z,8.73
2022-09-28T00:14:10.252Z,8.95
2022-09-28T00:16:43.633Z,8.70
2022-09-28T00:19:14.230Z,8.71
2022-09-28T00:21:46.130Z,8.72
2022-09-28T00:24:24.020Z,8.86
2022-09-28T00:27:00.812Z,8.60
2022-09-28T00:29:34.421Z,8.65
2022-09-28T00:32:06.404Z,8.74
2022-09-28T00:34:38.231Z,8.64
2022-09-28T00:37:09.448Z,8.61
2022-09-28T00:39:41.487Z,8.65
2022-09-28T00:42:19.721Z,8.64
2022-09-28T00:44:53.171Z,8.72
2022-09-28T00:47:29.074Z,8.84
2022-09-28T00:50:04.303Z,8.58
2022-09-28T00:52:38.533Z,8.55
2022-09-28T00:55:11.813Z,8.69
2022-09-28T00:57:46.110Z,8.73
2022-09-28T01:00:19.343Z,8.68
2022-09-28T01:02:50.417Z,8.80
2022-09-28T01:05:21.780Z,8.67
2022-09-28T01:07:51.886Z,8.76
2022-09-28T01:10:21.654Z,8.83
2022-09-28T01:12:51.296Z,8.79
2022-09-28T01:15:24.874Z,8.94
2022-09-28T01:18:06.475Z,8.92
2022-09-28T01:20:48.956Z,8.89
2022-09-28T01:23:40.436Z,8.85
2022-09-28T01:26:40.491Z,8.88
2022-09-28T01:29:18.781Z,8.90
2022-09-28T01:31:54.769Z,8.95
2022-09-28T01:34:32.165Z,8.70
2022-09-28T01:37:07.472Z,8.96
2022-09-28T01:39:42.472Z,8.88
2022-09-28T01:42:20.527Z,8.91
2022-09-28T01:44:53.015Z,8.90
2022-09-28T01:47:26.119Z,9.03
2022-09-28T01:50:03.451Z,8.95
2022-09-28T01:52:40.735Z,8.80
2022-09-28T01:55:15.196Z,8.89
2022-09-28T01:57:52.102Z,8.94
2022-09-28T02:00:23.551Z,9.02
2022-09-28T02:02:57.632Z,9.02
2022-09-28T02:05:31.960Z,9.11
2022-09-28T02:08:08.188Z,9.09
2022-09-28T02:10:43.313Z,9.07
2022-09-28T02:13:19.967Z,9.09
2022-09-28T02:15:54.237Z,9.12
2022-09-28T02:18:24.019Z,9.13
2022-09-28T02:20:59.806Z,9.10
2022-09-28T02:23:31.585Z,9.21
2022-09-28T02:26:09.089Z,9.21
2022-09-28T02:28:41.394Z,9.16
2022-09-28T02:31:11.203Z,9.23
2022-09-28T02:33:44.174Z,9.25
2022-09-28T02:36:14.321Z,9.16
2022-09-28T02:38:44.049Z,9.23
2022-09-28T02:41:28.803Z,9.28
2022-09-28T02:44:11.243Z,9.21
2022-09-28T02:46:47.002Z,9.29
2022-09-28T02:49:24.697Z,9.41
2022-09-28T02:52:07.281Z,9.33
2022-09-28T02:55:02.162Z,9.37
2022-09-28T02:57:43.332Z,9.36
2022-09-28T03:00:20.819Z,9.28
2022-09-28T03:03:01.194Z,9.41
2022-09-28T03:05:41.679Z,9.46
2022-09-28T03:08:18.965Z,9.51
2022-09-28T03:10:53.894Z,9.52
2022-09-28T03:13:23.791Z,9.50
2022-09-28T03:16:08.395Z,9.52
2022-09-28T03:18:38.094Z,9.47
2022-09-28T03:21:08.620Z,9.58
2022-09-28T03:23:38.303Z,9.57
2022-09-28T03:26:10.314Z,9.47
2022-09-28T03:28:40.347Z,9.57
2022-09-28T03:31:12.754Z,9.50
2022-09-28T03:33:42.444Z,9.41
2022-09-28T03:36:14.767Z,9.43
2022-09-28T03:38:44.402Z,9.49
2022-09-28T03:41:14.086Z,9.39
2022-09-28T03:43:43.758Z,9.50
2022-09-28T03:46:16.082Z,9.54
2022-09-28T03:48:45.868Z,9.54
2022-09-28T03:51:16.270Z,9.53
2022-09-28T03:53:45.991Z,9.50
2022-09-28T03:56:17.935Z,9.40
2022-09-28T03:58:47.619Z,9.36
2022-09-28T04:01:20.156Z,9.22
2022-09-28T04:03:50.578Z,9.12
2022-09-28T04:06:20.289Z,9.10
2022-09-28T04:08:50.020Z,8.97
2022-09-28T04:11:19.943Z,8.92
2022-09-28T04:13:52.343Z,8.91
2022-09-28T04:16:24.795Z,9.03
2022-09-28T04:18:54.578Z,9.20
2022-09-28T04:21:24.534Z,9.17
2022-09-28T04:23:55.111Z,9.15
2022-09-28T04:26:27.166Z,9.13
2022-09-28T04:29:09.405Z,9.18
2022-09-28T04:31:47.236Z,9.19
2022-09-28T04:34:18.618Z,9.06
2022-09-28T04:36:48.709Z,9.09
2022-09-28T04:39:19.881Z,9.13
2022-09-28T04:41:51.459Z,9.13
2022-09-28T04:44:21.146Z,9.15
2022-09-28T04:46:53.440Z,9.26
2022-09-28T04:49:24.593Z,9.25
2022-09-28T04:51:54.261Z,9.18
2022-09-28T04:54:23.952Z,9.27
2022-09-28T04:56:54.379Z,9.25
2022-09-28T04:59:24.280Z,9.28
2022-09-28T05:01:56.656Z,9.35
2022-09-28T05:04:26.420Z,9.46
2022-09-28T05:06:56.140Z,9.49
2022-09-28T05:09:25.865Z,9.58
2022-09-28T05:11:55.898Z,9.35
2022-09-28T05:14:25.568Z,9.30
2022-09-28T05:16:57.903Z,9.29
2022-09-28T05:19:27.725Z,9.36
2022-09-28T05:21:58.288Z,9.29
2022-09-28T05:24:27.970Z,9.29
2022-09-28T05:26:57.791Z,9.29
2022-09-28T05:29:31.920Z,9.35
2022-09-28T05:32:04.765Z,9.24
2022-09-28T05:34:34.549Z,9.00
2022-09-28T05:37:04.325Z,9.02
2022-09-28T05:39:33.932Z,9.08
2022-09-28T05:42:03.650Z,9.27
2022-09-28T05:44:33.367Z,9.12
2022-09-28T05:47:05.694Z,9.16
2022-09-28T05:49:35.386Z,9.22
2022-09-28T05:52:05.439Z,9.28
2022-09-28T05:54:35.179Z,9.24
2022-09-28T05:57:08.807Z,9.30
2022-09-28T05:59:38.673Z,9.33
2022-09-28T06:02:13.113Z,9.17
2022-09-28T06:04:42.975Z,9.34
2022-09-28T06:07:12.642Z,9.35
2022-09-28T06:09:42.389Z,9.35
2022-09-28T06:12:12.150Z,9.22
2022-09-28T06:14:41.827Z,9.20
2022-09-28T06:17:14.305Z,9.13
2022-09-28T06:19:44.199Z,9.04
2022-09-28T06:22:14.064Z,8.99
2022-09-28T06:24:43.725Z,8.95
2022-09-28T06:27:13.409Z,8.92
2022-09-28T06:29:43.336Z,8.90
2022-09-28T06:32:15.594Z,9.01
2022-09-28T06:34:45.232Z,8.93
2022-09-28T06:37:14.877Z,9.02
2022-09-28T06:39:44.500Z,9.28
2022-09-28T06:42:15.762Z,8.97
2022-09-28T06:44:47.205Z,8.92
2022-09-28T06:47:19.836Z,8.99
2022-09-28T06:49:51.433Z,9.04
2022-09-28T06:52:21.191Z,8.97
2022-09-28T06:54:50.827Z,9.01
2022-09-28T06:57:20.645Z,8.99
2022-09-28T06:59:50.304Z,8.98
2022-09-28T07:02:22.829Z,8.95
2022-09-28T07:04:52.737Z,9.01
2022-09-28T07:07:22.398Z,9.01
2022-09-28T07:09:56.555Z,8.96
2022-09-28T07:12:26.570Z,9.09
2022-09-28T07:14:57.515Z,9.33
2022-09-28T07:17:29.934Z,9.38
2022-09-28T07:20:06.696Z,9.51
2022-09-28T07:22:43.700Z,9.45
2022-09-28T07:25:14.416Z,9.54
2022-09-28T07:27:44.054Z,9.41
2022-09-28T07:30:15.336Z,9.41
2022-09-28T07:32:48.569Z,9.61
2022-09-28T07:35:18.564Z,9.67
2022-09-28T07:37:48.569Z,9.69
2022-09-28T07:40:30.861Z,9.68
2022-09-28T07:43:07.086Z,9.72
2022-09-28T07:45:38.549Z,9.79
2022-09-28T07:51:00.512Z,9.67
2022-09-28T07:53:31.564Z,9.70
2022-09-28T07:56:05.297Z,9.86
2022-09-28T07:58:35.454Z,9.80
2022-09-28T08:01:10.672Z,9.87
2022-09-28T08:03:45.445Z,9.85
2022-09-28T08:06:17.975Z,10.04
2022-09-28T08:08:48.081Z,10.18
2022-09-28T08:11:19.578Z,10.27
2022-09-28T08:13:49.315Z,10.30
2022-09-28T08:16:19.533Z,10.15
2022-09-28T08:18:54.298Z,10.14
2022-09-28T08:21:38.210Z,10.19
2022-09-28T08:24:08.256Z,10.14
2022-09-28T08:26:38.032Z,9.98
2022-09-28T08:29:08.368Z,10.20
2022-09-28T08:31:38.373Z,10.04
2022-09-28T08:34:10.981Z,10.07
2022-09-28T08:36:40.725Z,10.26
2022-09-28T08:39:10.495Z,10.41
2022-09-28T08:41:48.266Z,10.61
2022-09-28T08:44:24.234Z,10.68
2022-09-28T08:46:58.030Z,10.61
2022-09-28T08:49:37.286Z,10.66
2022-09-28T08:52:12.527Z,10.58
2022-09-28T08:54:49.073Z,10.57
2022-09-28T08:57:23.734Z,10.57
2022-09-28T08:59:56.193Z,10.65
2022-09-28T09:02:31.463Z,10.58
2022-09-28T09:05:07.675Z,10.74
2022-09-28T09:08:07.025Z,10.84
2022-09-28T09:10:52.419Z,10.94
2022-09-28T09:13:35.929Z,10.85
2022-09-28T09:16:14.799Z,10.70
2022-09-28T09:18:50.220Z,10.74
2022-09-28T09:21:41.600Z,10.62
2022-09-28T09:24:27.182Z,10.65
2022-09-28T09:27:21.130Z,10.82
2022-09-28T09:30:07.299Z,10.86
2022-09-28T09:32:55.093Z,10.89
2022-09-28T09:35:43.939Z,11.10
2022-09-28T09:38:35.305Z,11.14
2022-09-28T09:41:18.555Z,11.14
2022-09-28T09:44:03.313Z,10.99
2022-09-28T09:46:40.121Z,11.01
2022-09-28T09:49:17.215Z,11.24
2022-09-28T09:51:51.956Z,11.29
2022-09-28T09:54:30.786Z,11.34
2022-09-28T09:57:06.183Z,11.13
2022-09-28T09:59:40.715Z,11.02
2022-09-28T10:02:19.853Z,10.85
2022-09-28T10:04:51.862Z,10.92
2022-09-28T10:07:27.176Z,11.01
2022-09-28T10:10:02.734Z,11.00
2022-09-28T10:12:32.865Z,10.84
2022-09-28T10:15:06.806Z,10.96
2022-09-28T10:17:39.398Z,10.93
2022-09-28T10:20:14.865Z,10.97
2022-09-28T10:22:45.767Z,10.94
2022-09-28T10:25:18.683Z,10.89
2022-09-28T10:27:52.793Z,11.09
2022-09-28T10:30:24.827Z,11.10
2022-09-28T10:32:59.617Z,11.18
2022-09-28T10:35:32.461Z,11.29
2022-09-28T10:38:04.734Z,11.50
2022-09-28T10:40:46.268Z,11.54
2022-09-28T10:43:24.696Z,11.35
2022-09-28T10:46:04.619Z,11.49
2022-09-28T10:48:48.623Z,11.48
2022-09-28T10:51:19.675Z,11.52
2022-09-28T10:54:02.334Z,11.75
2022-09-28T10:56:39.951Z,11.73
2022-09-28T10:59:26.763Z,11.69
2022-09-28T11:01:58.674Z,11.90
2022-09-28T11:04:31.644Z,11.93
2022-09-28T11:07:02.198Z,11.91
2022-09-28T11:09:34.759Z,11.92
2022-09-28T11:12:09.564Z,12.10
2022-09-28T11:14:43.792Z,12.17
2022-09-28T11:17:19.176Z,12.36
2022-09-28T11:19:49.401Z,12.35
2022-09-28T11:22:31.858Z,12.40
2022-09-28T11:25:22.482Z,12.38
2022-09-28T11:28:04.786Z,12.52
2022-09-28T11:30:41.128Z,12.45
2022-09-28T11:33:20.135Z,12.48
2022-09-28T11:35:54.660Z,12.82
2022-09-28T11:38:36.525Z,13.24
2022-09-28T11:41:24.309Z,13.46
2022-09-28T11:44:20.083Z,13.58
2022-09-28T11:46:57.312Z,13.65
2022-09-28T11:49:34.667Z,13.44
2022-09-28T11:52:09.735Z,13.66
2022-09-28T11:54:47.536Z,13.85
2022-09-28T11:57:21.731Z,14.07
2022-09-28T12:00:01.699Z,13.84
2022-09-28T12:02:36.688Z,13.91
2022-09-28T12:05:20.552Z,13.79
2022-09-28T12:07:55.603Z,13.70
2022-09-28T12:10:35.736Z,13.86
2022-09-28T12:13:10.305Z,13.90
2022-09-28T12:16:22.560Z,13.89
2022-09-28T12:18:52.309Z,13.44
2022-09-28T12:21:34.342Z,13.28
2022-09-28T12:24:12.615Z,13.17
2022-09-28T12:26:48.922Z,13.26
2022-09-28T12:29:23.468Z,13.24
2022-09-28T12:32:07.221Z,13.43
2022-09-28T12:34:36.869Z,13.53
2022-09-28T12:37:30.297Z,13.46
2022-09-28T12:40:18.563Z,13.45
2022-09-28T12:43:05.431Z,13.54
2022-09-28T12:46:10.510Z,13.81
2022-09-28T12:49:24.090Z,13.77
2022-09-28T12:51:51.537Z,13.66
2022-09-28T12:54:51.843Z,13.64
2022-09-28T12:57:37.639Z,13.60
2022-09-28T13:00:11.606Z,13.38
2022-09-28T13:03:08.331Z,13.38
2022-09-28T13:06:11.555Z,13.21
2022-09-28T13:08:51.464Z,13.05
2022-09-28T13:11:32.005Z,12.89
2022-09-28T13:14:14.819Z,12.85
2022-09-28T13:16:51.177Z,13.00
2022-09-28T13:19:30.357Z,13.13
2022-09-28T13:22:19.991Z,13.12
2022-09-28T13:24:52.516Z,13.07
2022-09-28T13:27:29.944Z,13.09
2022-09-28T13:30:03.802Z,13.19
2022-09-28T13:32:35.716Z,13.21
2022-09-28T13:35:06.594Z,13.24
2022-09-28T13:37:38.890Z,13.07
2022-09-28T13:40:09.816Z,13.18
2022-09-28T13:43:21.470Z,13.09
2022-09-28T13:45:58.899Z,13.10
2022-09-28T13:48:44.497Z,13.18
2022-09-28T13:51:42.261Z,13.21
2022-09-28T13:54:41.659Z,13.26
2022-09-28T13:57:21.046Z,13.23
2022-09-28T14:00:03.076Z,13.09
2022-09-28T14:02:39.543Z,13.13
2022-09-28T14:05:29.948Z,13.09
2022-09-28T14:08:13.643Z,12.98
2022-09-28T14:10:52.906Z,12.96
2022-09-28T14:13:52.644Z,13.05
2022-09-28T14:16:24.287Z,13.10
2022-09-28T14:18:59.370Z,13.07
2022-09-28T14:21:50.791Z,12.97
2022-09-28T14:24:55.649Z,13.02
2022-09-28T14:28:03.232Z,13.07
2022-09-28T14:30:49.587Z,13.14
2022-09-28T14:33:27.759Z,13.10
2022-09-28T14:36:00.996Z,13.00
2022-09-28T14:38:47.810Z,13.00
2022-09-28T14:41:31.598Z,13.18
2022-09-28T14:44:10.409Z,13.14
2022-09-28T14:46:43.807Z,13.12
2022-09-28T14:49:43.580Z,13.09
2022-09-28T14:52:15.755Z,12.98
2022-09-28T14:54:51.962Z,12.88
2022-09-28T14:57:24.876Z,12.85
2022-09-28T15:00:00.880Z,12.93
2022-09-28T15:02:35.154Z,12.99
2022-09-28T15:05:17.371Z,12.90
2022-09-28T15:07:52.256Z,12.76
2022-09-28T15:10:36.334Z,12.66
2022-09-28T15:13:08.426Z,12.61
2022-09-28T15:15:43.541Z,12.53
2022-09-28T15:18:31.132Z,12.64
2022-09-28T15:21:00.976Z,12.70
2022-09-28T15:23:37.476Z,12.61
2022-09-28T15:26:10.114Z,12.55
2022-09-28T15:28:40.222Z,12.46
2022-09-28T15:31:21.022Z,12.42
2022-09-28T15:34:03.687Z,12.54
2022-09-28T15:36:36.505Z,12.41
2022-09-28T15:39:08.931Z,12.35
2022-09-28T15:41:38.924Z,12.38
2022-09-28T15:44:39.461Z,12.36
2022-09-28T15:47:19.407Z,12.26
2022-09-28T15:49:58.689Z,12.18
2022-09-28T15:52:37.164Z,12.19
2022-09-28T15:55:19.714Z,12.10
2022-09-28T15:57:50.160Z,12.07
2022-09-28T16:00:29.157Z,12.11
2022-09-28T16:03:21.913Z,12.09
2022-09-28T16:05:54.069Z,12.07
2022-09-28T16:08:27.473Z,12.09
2022-09-28T16:11:12.294Z,12.01
2022-09-28T16:13:55.741Z,11.99
2022-09-28T16:16:30.982Z,11.92
2022-09-28T16:19:05.115Z,11.98
2022-09-28T16:21:48.265Z,11.83
2022-09-28T16:24:26.691Z,11.85
2022-09-28T16:27:02.512Z,11.82
2022-09-28T16:29:40.432Z,11.78
2022-09-28T16:32:41.600Z,11.70
2022-09-28T16:35:29.223Z,11.63
2022-09-28T16:38:13.911Z,11.64
2022-09-28T16:40:46.365Z,11.59
2022-09-28T16:43:27.179Z,11.50
2022-09-28T16:45:58.573Z,11.41
2022-09-28T16:48:29.643Z,11.36
2022-09-28T16:51:03.038Z,11.34
2022-09-28T16:53:45.104Z,11.30
2022-09-28T16:56:16.326Z,11.26
2022-09-28T16:58:49.221Z,11.31
2022-09-28T17:01:19.757Z,11.35
2022-09-28T17:03:50.324Z,11.26
2022-09-28T17:06:25.508Z,11.29
2022-09-28T17:08:58.547Z,11.31
2022-09-28T17:11:28.359Z,11.30
2022-09-28T17:14:00.291Z,11.33
2022-09-28T17:17:06.228Z,11.30
2022-09-28T17:19:28.741Z,11.35
2022-09-28T17:22:01.109Z,11.37
2022-09-28T17:24:30.832Z,11.32
2022-09-28T17:27:00.969Z,11.23
2022-09-28T17:29:30.755Z,11.25
2022-09-28T17:32:00.496Z,11.22
2022-09-28T17:34:30.262Z,11.23
2022-09-28T17:37:02.607Z,11.20
2022-09-28T17:39:32.303Z,11.09
2022-09-28T17:42:02.058Z,11.04
2022-09-28T17:44:31.809Z,10.93
2022-09-28T17:47:02.154Z,10.81
2022-09-28T17:49:31.942Z,10.69
2022-09-28T17:52:05.702Z,10.65
2022-09-28T17:54:35.455Z,10.55
2022-09-28T17:57:05.180Z,10.41
2022-09-28T17:59:34.944Z,10.43
2022-09-28T18:02:04.695Z,10.41
2022-09-28T18:04:51.414Z,10.44
2022-09-28T18:07:24.987Z,10.61
2022-09-28T18:09:56.843Z,10.63
2022-09-28T18:12:26.938Z,10.47
2022-09-28T18:14:56.869Z,10.63
2022-09-28T18:17:26.698Z,10.57
2022-09-28T18:19:56.467Z,10.48
2022-09-28T18:22:28.907Z,10.28
2022-09-28T18:24:58.742Z,10.18
2022-09-28T18:27:30.229Z,10.40
2022-09-28T18:30:00.450Z,10.41
2022-09-28T18:32:30.228Z,10.14
2022-09-28T18:34:59.985Z,10.15
2022-09-28T18:37:33.473Z,10.14
2022-09-28T18:40:03.496Z,10.23
2022-09-28T18:42:35.704Z,10.05
2022-09-28T18:45:05.993Z,10.14
2022-09-28T18:47:36.303Z,10.14
2022-09-28T18:50:06.532Z,10.05
2022-09-28T18:52:42.503Z,10.06
2022-09-28T18:55:12.906Z,9.96
2022-09-28T18:57:44.338Z,9.88
2022-09-28T19:00:15.901Z,9.89
2022-09-28T19:02:45.902Z,10.00
2022-09-28T19:05:15.796Z,9.86
2022-09-28T19:07:48.166Z,9.92
2022-09-28T19:10:18.024Z,9.81
2022-09-28T19:12:47.820Z,9.85
2022-09-28T19:15:18.669Z,9.61
2022-09-28T19:17:49.456Z,9.71
2022-09-28T19:20:19.551Z,9.58
2022-09-28T19:22:54.560Z,9.49
2022-09-28T19:25:24.276Z,9.32
2022-09-28T19:27:54.095Z,9.54
2022-09-28T19:30:23.850Z,9.66
2022-09-28T19:32:53.600Z,9.59
2022-09-28T19:35:23.420Z,9.32
2022-09-28T19:37:56.269Z,9.17
2022-09-28T19:40:26.051Z,9.56
2022-09-28T19:42:55.919Z,9.31
2022-09-28T19:45:25.703Z,9.64
2022-09-28T19:48:01.768Z,9.39
2022-09-28T19:50:32.110Z,9.37
2022-09-28T19:53:07.309Z,9.30
2022-09-28T19:55:37.381Z,9.50
2022-09-28T19:58:07.381Z,9.69
2022-09-28T20:00:37.254Z,9.58
2022-09-28T20:03:06.976Z,9.55
2022-09-28T20:05:39.015Z,9.49
2022-09-28T20:08:11.998Z,9.39
2022-09-28T20:10:42.077Z,9.26
2022-09-28T20:13:11.887Z,9.23
2022-09-28T20:15:41.748Z,9.21
2022-09-28T20:18:12.299Z,9.21
2022-09-28T20:20:42.852Z,8.93
2022-09-28T20:23:15.593Z,9.03
2022-09-28T20:25:45.384Z,8.92
2022-09-28T20:28:15.533Z,8.79
2022-09-28T20:30:45.423Z,8.96
2022-09-28T20:33:22.846Z,8.80
2022-09-28T20:35:59.521Z,8.68
2022-09-28T20:38:31.807Z,8.80
2022-09-28T20:41:03.064Z,9.02
2022-09-28T20:43:34.978Z,8.79
2022-09-28T20:46:05.464Z,8.85
2022-09-28T20:48:35.685Z,8.76
2022-09-28T20:51:10.315Z,8.77
2022-09-28T20:53:44.158Z,8.70
2022-09-28T20:56:19.797Z,8.77
2022-09-28T20:58:51.230Z,8.80
2022-09-28T21:01:23.345Z,8.72
2022-09-28T21:03:54.612Z,8.85
2022-09-28T21:06:27.103Z,8.80
2022-09-28T21:08:59.679Z,8.63
2022-09-28T21:11:31.448Z,8.58
2022-09-28T21:14:02.686Z,8.75
2022-09-28T21:16:34.516Z,8.89
2022-09-28T21:19:04.420Z,8.71
2022-09-28T21:21:34.629Z,8.89
2022-09-28T21:24:07.313Z,8.68
2022-09-28T21:26:37.156Z,8.81
2022-09-28T21:29:09.116Z,8.78
2022-09-28T21:31:42.118Z,8.77
2022-09-28T21:34:15.150Z,9.01
2022-09-28T21:36:45.019Z,8.98
2022-09-28T21:39:17.857Z,9.20
2022-09-28T21:41:47.877Z,9.08
2022-09-28T21:44:17.679Z,8.98
2022-09-28T21:46:47.609Z,9.04
2022-09-28T21:49:17.427Z,9.10
2022-09-28T21:51:47.379Z,9.02
2022-09-28T21:54:19.941Z,9.28
2022-09-28T21:56:49.820Z,8.88
2022-09-28T21:59:19.646Z,8.80
2022-09-28T22:01:49.443Z,8.74
2022-09-28T22:04:19.436Z,8.75
2022-09-28T22:06:49.394Z,8.77
2022-09-28T22:09:21.866Z,8.66
2022-09-28T22:11:51.660Z,8.56
2022-09-28T22:14:21.469Z,8.46
2022-09-28T22:16:51.295Z,8.57
2022-09-28T22:19:21.134Z,8.63
2022-09-28T22:21:50.921Z,8.58
2022-09-28T22:24:23.388Z,8.65
2022-09-28T22:26:53.157Z,8.92
2022-09-28T22:29:24.117Z,8.79
2022-09-28T22:32:00.331Z,8.86
2022-09-28T22:34:31.815Z,8.72
2022-09-28T22:37:02.570Z,8.86
2022-09-28T22:39:37.680Z,8.84
2022-09-28T22:42:08.134Z,8.76
2022-09-28T22:44:38.560Z,8.85
2022-09-28T22:47:08.452Z,8.66
2022-09-28T22:49:38.189Z,8.94
2022-09-28T22:52:08.034Z,8.70
2022-09-28T22:54:40.778Z,8.53
2022-09-28T22:57:10.689Z,8.51
2022-09-28T22:59:40.511Z,8.66
2022-09-28T23:02:10.271Z,8.56
2022-09-28T23:04:40.038Z,8.54
2022-09-28T23:07:09.782Z,8.54
2022-09-28T23:09:42.189Z,8.62
2022-09-28T23:12:12.022Z,8.49
2022-09-28T23:14:41.779Z,8.50
2022-09-28T23:17:11.510Z,8.55
2022-09-28T23:19:41.282Z,8.51
2022-09-28T23:22:11.111Z,8.44
2022-09-28T23:24:43.511Z,8.46
2022-09-28T23:27:13.296Z,8.45
2022-09-28T23:29:47.050Z,8.27
2022-09-28T23:32:16.982Z,8.49
2022-09-28T23:34:47.060Z,8.56
2022-09-28T23:37:16.810Z,8.66
2022-09-28T23:39:49.189Z,8.35
2022-09-28T23:42:18.928Z,8.57
2022-09-28T23:44:48.701Z,8.49
2022-09-28T23:47:18.424Z,8.62
2022-09-28T23:49:48.203Z,8.63
2022-09-28T23:52:18.055Z,8.60
2022-09-28T23:54:50.458Z,8.42
2022-09-28T23:57:20.322Z,8.44
2022-09-28T23:59:50.020Z,8.58
